Time;durP1;ratioP1;P1;durP2;ratioP2;P2;SDS_P1;SDS_P2;PMS_P1;PMS_P2;Temp;Humidity;BMP_temperature;BMP_pressure;BME280_temperature;BME280_humidity;BME280_pressure;Samples;Min_cycle;Max_cycle;Signal;HPM_P1;HPM_P2
2023/09/28 00:02:06;;;;;;;15.90;8.80;;;;;;;13.89;80.08;101161.78;4998535;28;20215;-72
2023/09/28 00:04:34;;;;;;;15.93;8.47;;;;;;;13.88;80.18;101168.19;5003654;28;20207;-72
2023/09/28 00:06:59;;;;;;;12.67;9.00;;;;;;;13.87;80.38;101158.69;5006670;28;20435;-72
2023/09/28 00:09:26;;;;;;;12.10;8.90;;;;;;;13.86;79.90;101168.53;5005246;28;20229;-72
2023/09/28 00:11:52;;;;;;;16.53;9.07;;;;;;;13.86;80.23;101167.75;5005471;28;20214;-72
2023/09/28 00:14:19;;;;;;;13.57;9.27;;;;;;;13.84;80.04;101160.13;5001684;28;20204;-72
2023/09/28 00:16:46;;;;;;;13.63;9.73;;;;;;;13.85;80.45;101161.66;5006553;28;20208;-74
2023/09/28 00:19:12;;;;;;;15.60;8.63;;;;;;;13.83;80.59;101158.59;4988877;28;20239;-72
2023/09/28 00:21:40;;;;;;;17.10;9.40;;;;;;;13.82;80.65;101156.25;4990954;28;20211;-73
2023/09/28 00:24:09;;;;;;;11.47;8.10;;;;;;;13.82;80.41;101161.56;4988855;28;20222;-74
2023/09/28 00:26:36;;;;;;;11.67;8.63;;;;;;;13.80;80.78;101156.59;5006936;28;20650;-73
2023/09/28 00:29:02;;;;;;;14.90;9.63;;;;;;;13.81;80.54;101160.78;5006230;28;20712;-72
2023/09/28 00:31:29;;;;;;;14.97;9.23;;;;;;;13.81;79.95;101166.09;4990919;28;20302;-73
2023/09/28 00:33:54;;;;;;;15.63;9.40;;;;;;;13.80;79.90;101164.53;4989420;28;20207;-72
2023/09/28 00:36:24;;;;;;;14.97;9.60;;;;;;;13.82;80.16;101158.91;4981139;28;20213;-73
2023/09/28 00:38:52;;;;;;;15.03;9.30;;;;;;;13.82;79.90;101158.91;4986441;28;20228;-73
2023/09/28 00:41:18;;;;;;;11.03;8.87;;;;;;;13.82;79.95;101164.97;4989881;28;20207;-72
2023/09/28 00:43:45;;;;;;;11.33;8.47;;;;;;;13.81;80.05;101158.13;4991902;28;20199;-72
2023/09/28 00:46:14;;;;;;;13.53;8.60;;;;;;;13.81;80.70;101162.69;4999944;28;20215;-72
2023/09/28 00:48:54;;;;;;;11.20;8.27;;;;;;;13.78;80.97;101164.13;5001518;28;20234;-73
2023/09/28 00:51:20;;;;;;;10.53;8.23;;;;;;;13.78;81.34;101155.38;5003546;28;20207;-72
2023/09/28 00:53:46;;;;;;;13.87;8.63;;;;;;;13.76;81.62;101157.59;5003865;28;20215;-73
2023/09/28 00:56:13;;;;;;;12.13;7.60;;;;;;;13.73;81.52;101159.03;4989592;28;20215;-72
2023/09/28 00:58:43;;;;;;;11.37;8.63;;;;;;;13.70;82.03;101159.69;4986490;28;20817;-73
2023/09/28 01:01:11;;;;;;;13.83;8.20;;;;;;;13.67;82.38;101159.56;4971549;28;20209;-73
2023/09/28 01:03:37;;;;;;;11.97;8.37;;;;;;;13.62;82.54;101155.25;4987237;28;20203;-72
2023/09/28 01:06:07;;;;;;;13.47;9.20;;;;;;;13.60;82.43;101162.78;4988275;28;20220;-72
2023/09/28 01:08:34;;;;;;;13.67;8.30;;;;;;;13.57;82.86;101163.41;5001074;28;20375;-72
2023/09/28 01:11:05;;;;;;;14.47;8.80;;;;;;;13.54;82.82;101155.34;4982919;28;20837;-72
2023/09/28 01:13:33;;;;;;;18.80;9.30;;;;;;;13.49;82.80;101156.34;5003988;28;20223;-74
2023/09/28 01:15:59;;;;;;;10.83;8.17;;;;;;;13.46;83.00;101154.34;4986306;28;20331;-74
2023/09/28 01:18:25;;;;;;;12.13;8.80;;;;;;;13.45;83.33;101160.75;4986825;28;20504;-74
2023/09/28 01:20:51;;;;;;;14.33;9.80;;;;;;;13.40;83.31;101147.72;5001791;28;20277;-73
2023/09/28 01:23:23;;;;;;;12.57;9.40;;;;;;;13.38;83.67;101152.59;4982312;28;20215;-74
2023/09/28 01:25:49;;;;;;;12.03;9.00;;;;;;;13.35;83.66;101155.88;4997991;28;20210;-74
2023/09/28 01:28:16;;;;;;;10.87;8.77;;;;;;;13.32;83.85;101147.81;4996383;28;20214;-73
2023/09/28 01:30:42;;;;;;;10.43;8.80;;;;;;;13.29;83.68;101151.91;4996793;28;20683;-74
2023/09/28 01:33:09;;;;;;;14.73;9.57;;;;;;;13.26;83.41;101157.09;4974285;28;20334;-74
2023/09/28 01:35:35;;;;;;;14.20;9.40;;;;;;;13.24;83.63;101154.00;4981304;28;20211;-73
2023/09/28 01:38:14;;;;;;;15.37;9.77;;;;;;;13.22;83.71;101150.88;4982507;28;20222;-73
2023/09/28 01:40:42;;;;;;;14.70;10.53;;;;;;;13.20;83.24;101151.22;4981800;28;20651;-74
2023/09/28 01:43:10;;;;;;;18.50;9.73;;;;;;;13.21;82.99;101159.94;4999440;28;20231;-73
2023/09/28 01:45:36;;;;;;;14.47;9.97;;;;;;;13.20;82.88;101153.09;4998215;28;20604;-74
2023/09/28 01:48:03;;;;;;;17.93;10.13;;;;;;;13.21;82.72;101149.34;4987445;28;20204;-71
2023/09/28 01:50:29;;;;;;;13.40;9.97;;;;;;;13.22;82.63;101156.19;4987016;28;20230;-73
2023/09/28 01:52:55;;;;;;;19.17;9.87;;;;;;;13.24;82.30;101143.41;4988127;28;20240;-72
2023/09/28 01:55:21;;;;;;;11.90;9.43;;;;;;;13.24;81.92;101149.47;4977265;28;20238;-72
2023/09/28 01:57:49;;;;;;;14.47;9.60;;;;;;;13.26;81.93;101147.25;4982331;28;20223;-73
2023/09/28 02:00:17;;;;;;;16.17;9.37;;;;;;;13.27;81.70;101146.16;4982761;28;20230;-72
2023/09/28 02:02:44;;;;;;;15.83;9.60;;;;;;;13.31;81.75;101149.69;5002945;28;20466;-72
2023/09/28 02:05:11;;;;;;;11.03;9.00;;;;;;;13.31;81.73;101143.63;5002754;28;20294;-72
2023/09/28 02:07:40;;;;;;;10.57;8.77;;;;;;;13.33;81.46;101144.06;5001818;28;20206;-74
2023/09/28 02:10:07;;;;;;;14.10;8.83;;;;;;;13.34;81.13;101140.28;5001256;28;20219;-72
2023/09/28 02:12:34;;;;;;;14.67;9.13;;;;;;;13.37;81.43;101142.28;4985064;28;20274;-73
2023/09/28 02:15:07;;;;;;;17.70;8.17;;;;;;;13.38;81.30;101143.84;4985036;28;20281;-73
2023/09/28 02:17:33;;;;;;;15.67;9.20;;;;;;;13.39;81.33;101140.88;5000370;28;20702;-72
2023/09/28 02:19:58;;;;;;;15.43;9.13;;;;;;;13.41;81.56;101143.19;4984400;28;20295;-72
2023/09/28 02:22:27;;;;;;;14.10;8.90;;;;;;;13.41;81.12;101143.94;4980130;28;20214;-72
2023/09/28 02:24:52;;;;;;;14.90;8.23;;;;;;;13.42;81.14;101139.44;4982785;28;20204;-72
2023/09/28 02:27:19;;;;;;;13.27;8.50;;;;;;;13.43;80.92;101144.41;5001421;28;20207;-72
2023/09/28 02:29:45;;;;;;;14.07;9.10;;;;;;;13.45;81.13;101147.50;5000025;28;20218;-73
2023/09/28 02:32:14;;;;;;;12.33;8.57;;;;;;;13.47;80.88;101141.88;4990707;28;20211;-73
2023/09/28 02:34:42;;;;;;;11.93;9.07;;;;;;;13.49;81.06;101145.75;4999064;28;20633;-72
2023/09/28 02:37:09;;;;;;;16.37;8.30;;;;;;;13.50;80.76;101136.66;4983601;28;20306;-72
2023/09/28 02:39:34;;;;;;;14.30;8.47;;;;;;;13.50;80.67;101141.97;4983125;28;20789;-71
2023/09/28 02:42:03;;;;;;;14.33;8.80;;;;;;;13.50;80.44;101141.97;4994354;28;20208;-73
2023/09/28 02:44:29;;;;;;;11.77;8.50;;;;;;;13.51;81.02;101140.88;4999019;28;20287;-72
2023/09/28 02:46:55;;;;;;;13.37;7.93;;;;;;;13.53;80.71;101138.69;4993075;28;20207;-72
2023/09/28 02:49:23;;;;;;;10.80;8.13;;;;;;;13.53;80.17;101138.69;4991883;28;20235;-72
2023/09/28 02:51:50;;;;;;;10.30;8.47;;;;;;;13.53;80.56;101138.69;4983437;28;20700;-72
2023/09/28 02:54:16;;;;;;;12.83;8.57;;;;;;;13.53;80.35;101148.50;4997582;28;20216;-73
2023/09/28 02:56:42;;;;;;;14.50;8.73;;;;;;;13.52;80.37;101131.81;4998747;28;20211;-72
2023/09/28 02:59:08;;;;;;;10.00;8.43;;;;;;;13.53;81.09;101143.19;4983996;28;20765;-72
2023/09/28 03:01:35;;;;;;;20.30;8.70;;;;;;;13.54;80.71;101137.56;4983394;28;20201;-72
2023/09/28 03:04:01;;;;;;;13.30;8.37;;;;;;;13.55;80.42;101133.78;4983206;28;20206;-72
2023/09/28 03:06:37;;;;;;;18.00;8.40;;;;;;;13.56;80.60;101138.00;4984195;28;20672;-75
2023/09/28 03:09:03;;;;;;;14.47;8.20;;;;;;;13.58;80.50;101143.75;4982331;28;20225;-72
2023/09/28 03:11:29;;;;;;;15.33;8.07;;;;;;;13.59;80.96;101150.63;4988623;28;20259;-72
2023/09/28 03:13:55;;;;;;;12.23;8.83;;;;;;;13.59;80.54;101150.63;5000857;28;20613;-72
2023/09/28 03:16:21;;;;;;;15.53;8.30;;;;;;;13.61;80.58;101150.28;4985860;28;20480;-72
2023/09/28 03:18:46;;;;;;;11.10;7.90;;;;;;;13.62;80.63;101152.59;4994883;28;20256;-72
2023/09/28 03:21:14;;;;;;;15.77;8.40;;;;;;;13.62;81.04;101154.47;5002286;28;20243;-72
2023/09/28 03:23:40;;;;;;;10.37;8.13;;;;;;;13.62;80.55;101154.47;4998223;28;20293;-73
2023/09/28 03:26:07;;;;;;;15.13;8.17;;;;;;;13.62;80.30;101162.44;4998670;28;20216;-73
2023/09/28 03:28:32;;;;;;;13.10;7.73;;;;;;;13.61;80.35;101163.56;4988778;28;20208;-72
2023/09/28 03:30:59;;;;;;;10.17;7.73;;;;;;;13.59;80.55;101158.56;4981578;28;20269;-74
2023/09/28 03:33:25;;;;;;;11.00;7.33;;;;;;;13.57;80.87;101163.41;4996894;28;20202;-74
2023/09/28 03:35:51;;;;;;;9.57;7.77;;;;;;;13.56;80.84;101161.88;4997791;28;20716;-72
2023/09/28 03:38:17;;;;;;;12.10;7.77;;;;;;;13.54;80.77;101161.44;4992152;28;20685;-72
2023/09/28 03:40:45;;;;;;;11.07;7.93;;;;;;;13.53;81.21;101164.41;4991963;28;20220;-72
2023/09/28 03:43:11;;;;;;;11.47;8.27;;;;;;;13.50;80.44;101157.88;5001782;28;20212;-72
2023/09/28 03:45:38;;;;;;;11.30;8.20;;;;;;;13.52;80.11;101161.00;5001137;28;20202;-73
2023/09/28 03:48:05;;;;;;;11.67;8.47;;;;;;;13.51;80.27;101164.75;4999695;28;20218;-72
2023/09/28 03:50:31;;;;;;;10.77;8.13;;;;;;;13.53;81.01;101153.81;5000067;28;20249;-72
2023/09/28 03:52:58;;;;;;;15.70;7.83;;;;;;;13.54;80.97;101160.66;5000090;28;20203;-73
2023/09/28 03:55:24;;;;;;;10.67;8.57;;;;;;;13.55;80.88;101154.28;4999343;28;20223;-72
2023/09/28 03:57:52;;;;;;;13.53;8.77;;;;;;;13.57;80.96;101155.47;4991740;28;20293;-73
2023/09/28 04:00:19;;;;;;;12.97;8.20;;;;;;;13.59;80.48;101157.78;4995143;28;20267;-72
2023/09/28 04:02:49;;;;;;;15.50;7.80;;;;;;;13.61;80.53;101156.34;4992227;28;20204;-72
2023/09/28 04:05:16;;;;;;;11.00;7.60;;;;;;;13.63;80.67;101154.16;4998222;28;20210;-72
2023/09/28 04:07:43;;;;;;;12.10;8.43;;;;;;;13.67;80.19;101156.91;4998856;28;20204;-72
2023/09/28 04:10:11;;;;;;;11.23;7.80;;;;;;;13.67;79.95;101155.03;4996106;28;20768;-73
2023/09/28 04:12:37;;;;;;;13.27;7.80;;;;;;;13.68;79.94;101151.28;4990567;28;20198;-73
2023/09/28 04:15:07;;;;;;;11.80;8.07;;;;;;;13.69;80.19;101152.81;4999120;28;20581;-72
2023/09/28 04:17:34;;;;;;;14.37;8.67;;;;;;;13.69;79.89;101150.19;4999221;28;20202;-72
2023/09/28 04:20:00;;;;;;;11.97;7.70;;;;;;;13.70;80.04;101153.59;4993875;28;20231;-72
2023/09/28 04:22:27;;;;;;;13.07;8.00;;;;;;;13.70;79.92;101162.34;4991361;28;20216;-74
2023/09/28 04:24:53;;;;;;;13.53;8.00;;;;;;;13.71;79.87;101160.47;4999969;28;20212;-73
2023/09/28 04:27:19;;;;;;;10.80;8.50;;;;;;;13.71;80.47;101163.13;4999509;28;20387;-71
2023/09/28 04:29:46;;;;;;;11.87;8.13;;;;;;;13.70;79.76;101167.63;4992485;28;20230;-75
2023/09/28 04:32:14;;;;;;;11.23;7.53;;;;;;;13.71;80.63;101165.78;5002701;28;20273;-72
2023/09/28 04:34:40;;;;;;;8.77;7.73;;;;;;;13.70;79.99;101170.28;5001589;28;20690;-72
2023/09/28 04:37:06;;;;;;;12.53;7.93;;;;;;;13.70;80.39;101161.53;4989938;28;20921;-72
2023/09/28 04:39:34;;;;;;;15.20;7.23;;;;;;;13.69;80.64;101160.00;5002762;28;20644;-73
2023/09/28 04:42:00;;;;;;;12.47;7.93;;;;;;;13.68;80.77;101153.16;5003190;28;20203;-72
2023/09/28 04:44:27;;;;;;;13.43;7.73;;;;;;;13.66;80.53;101161.44;5001424;28;20201;-72
2023/09/28 04:46:53;;;;;;;9.97;7.73;;;;;;;13.65;80.90;101161.75;4996654;28;20211;-72
2023/09/28 04:49:21;;;;;;;11.83;7.97;;;;;;;13.63;80.79;101161.34;5002754;28;20306;-72
2023/09/28 04:51:48;;;;;;;14.37;7.83;;;;;;;13.62;80.83;101159.78;5001416;28;20683;-73
2023/09/28 04:54:14;;;;;;;11.73;7.80;;;;;;;13.60;80.99;101160.13;5000389;28;20214;-72
2023/09/28 04:56:41;;;;;;;15.77;8.87;;;;;;;13.58;81.12;101153.59;4993336;28;20215;-73
2023/09/28 04:59:08;;;;;;;14.43;8.17;;;;;;;13.56;81.26;101153.91;4997298;28;20219;-72
2023/09/28 05:01:34;;;;;;;14.90;8.10;;;;;;;13.55;81.62;101154.28;4999320;28;20659;-73
2023/09/28 05:04:01;;;;;;;12.30;8.63;;;;;;;13.53;80.92;101153.81;4995568;28;20203;-72
2023/09/28 05:06:29;;;;;;;10.80;8.17;;;;;;;13.52;80.81;101155.69;4995652;28;20203;-74
2023/09/28 05:08:56;;;;;;;11.43;8.63;;;;;;;13.54;80.75;101152.69;4995511;28;20226;-72
2023/09/28 05:11:22;;;;;;;17.07;8.80;;;;;;;13.55;80.98;101149.72;4999411;28;20221;-72
2023/09/28 05:13:51;;;;;;;14.53;9.03;;;;;;;13.57;80.49;101152.81;4996566;28;20213;-73
2023/09/28 05:16:17;;;;;;;10.33;8.17;;;;;;;13.59;80.96;101155.13;5004970;28;20208;-72
2023/09/28 05:18:43;;;;;;;11.17;7.70;;;;;;;13.62;80.87;101154.47;5001434;28;20227;-72
2023/09/28 05:21:10;;;;;;;15.37;8.37;;;;;;;13.66;81.23;101156.13;5001286;28;20564;-72
2023/09/28 05:23:38;;;;;;;11.77;7.67;;;;;;;13.70;81.28;101162.34;5001757;28;20691;-73
2023/09/28 05:26:04;;;;;;;11.73;7.73;;;;;;;13.73;80.35;101159.03;4996109;28;20206;-74
2023/09/28 05:28:31;;;;;;;14.70;8.43;;;;;;;13.77;80.59;101167.09;5001764;28;20200;-72
2023/09/28 05:30:57;;;;;;;13.13;7.80;;;;;;;13.80;80.03;101167.19;4984667;28;20719;-72
2023/09/28 05:33:23;;;;;;;10.83;8.23;;;;;;;13.84;80.43;101176.06;4996812;28;20239;-72
2023/09/28 05:35:50;;;;;;;13.43;7.67;;;;;;;13.88;80.52;101173.50;4999581;28;20227;-75
2023/09/28 05:38:16;;;;;;;11.33;7.33;;;;;;;13.92;80.58;101164.53;5000921;28;20274;-73
2023/09/28 05:40:44;;;;;;;13.10;8.23;;;;;;;13.97;79.85;101169.63;4994966;28;20226;-72
2023/09/28 05:43:10;;;;;;;13.70;7.87;;;;;;;14.02;80.05;101181.91;4993626;28;20206;-74
2023/09/28 05:45:37;;;;;;;10.30;7.10;;;;;;;14.06;80.53;101178.25;5000553;28;20200;-73
2023/09/28 05:48:05;;;;;;;9.57;8.03;;;;;;;14.10;80.22;101175.69;5000822;28;20695;-72
2023/09/28 05:50:31;;;;;;;11.00;7.10;;;;;;;14.13;79.58;101175.78;5000066;28;20247;-74
2023/09/28 05:52:57;;;;;;;14.53;7.53;;;;;;;14.17;79.60;101176.69;4993174;28;20734;-72
2023/09/28 05:55:25;;;;;;;16.43;7.37;;;;;;;14.23;79.73;101177.28;4998553;28;20295;-74
2023/09/28 05:57:53;;;;;;;11.70;7.27;;;;;;;14.26;79.80;101187.22;4980376;28;20251;-72
2023/09/28 06:00:20;;;;;;;9.40;7.00;;;;;;;14.30;79.64;101186.22;4997152;28;20250;-73
2023/09/28 06:02:46;;;;;;;10.43;7.10;;;;;;;14.36;79.66;101189.41;4995040;28;20197;-73
2023/09/28 06:05:12;;;;;;;13.63;7.17;;;;;;;14.38;79.73;101193.28;4996638;28;20209;-73
2023/09/28 06:07:39;;;;;;;12.67;7.27;;;;;;;14.44;79.50;101196.50;4996276;28;20224;-72
2023/09/28 06:10:10;;;;;;;14.03;7.63;;;;;;;14.49;79.06;101206.88;4996734;28;20221;-73
2023/09/28 06:12:36;;;;;;;14.30;6.97;;;;;;;14.53;79.45;101202.44;4992995;28;20209;-72
2023/09/28 06:15:07;;;;;;;11.20;7.73;;;;;;;14.57;78.95;101206.75;4997730;28;20204;-72
2023/09/28 06:17:37;;;;;;;12.30;7.33;;;;;;;14.63;79.18;101212.59;4996445;28;20544;-74
2023/09/28 06:20:05;;;;;;;16.30;7.33;;;;;;;14.68;78.83;101213.13;4998326;28;20243;-72
2023/09/28 06:22:31;;;;;;;8.73;6.90;;;;;;;14.76;79.03;101206.13;4984560;28;20667;-72
2023/09/28 06:24:57;;;;;;;10.23;6.63;;;;;;;14.84;79.28;101210.53;4989935;28;20579;-74
2023/09/28 06:27:26;;;;;;;14.03;7.10;;;;;;;14.90;79.17;101204.63;4996210;28;20200;-75
2023/09/28 06:29:53;;;;;;;8.50;7.00;;;;;;;15.00;79.24;101211.38;4999913;28;20226;-72
2023/09/28 06:32:21;;;;;;;12.63;7.17;;;;;;;15.07;78.44;101214.97;4996627;28;20319;-72
2023/09/28 06:34:47;;;;;;;12.93;7.10;;;;;;;15.19;78.75;101211.50;4981158;28;20230;-73
2023/09/28 06:37:13;;;;;;;15.03;6.90;;;;;;;15.27;78.46;101211.31;4996592;28;20304;-73
2023/09/28 06:39:40;;;;;;;13.10;7.17;;;;;;;15.36;77.99;101208.56;4990396;28;20220;-74
2023/09/28 06:42:06;;;;;;;12.40;6.80;;;;;;;15.44;78.03;101210.28;4981545;28;20572;-73
2023/09/28 06:44:33;;;;;;;9.63;6.30;;;;;;;15.55;77.81;101216.63;4995558;28;20808;-72
2023/09/28 06:47:00;;;;;;;15.27;6.40;;;;;;;15.63;77.40;101216.47;4975606;28;20816;-73
2023/09/28 06:49:28;;;;;;;13.10;6.00;;;;;;;15.74;77.27;101201.50;4994458;28;20224;-74
2023/09/28 06:51:54;;;;;;;12.40;6.10;;;;;;;15.87;76.95;101216.28;4995171;28;20211;-74
2023/09/28 06:54:20;;;;;;;12.67;5.37;;;;;;;15.99;76.45;101213.53;4996311;28;20705;-73
2023/09/28 06:56:48;;;;;;;9.87;5.60;;;;;;;16.09;76.64;101215.66;4994873;28;20238;-73
2023/09/28 06:59:14;;;;;;;13.50;5.33;;;;;;;16.22;76.44;101219.00;4991951;28;20587;-74
2023/09/28 07:01:40;;;;;;;12.37;5.77;;;;;;;16.30;76.03;101223.38;4985473;28;20207;-73
2023/09/28 07:04:08;;;;;;;11.67;5.27;;;;;;;16.40;75.98;101233.53;4985285;28;20207;-72
2023/09/28 07:06:35;;;;;;;13.40;5.83;;;;;;;16.51;75.78;101229.94;4991653;28;20880;-74
2023/09/28 07:09:02;;;;;;;10.43;5.77;;;;;;;16.61;75.12;101224.06;4994667;28;20220;-74
2023/09/28 07:11:29;;;;;;;8.00;5.63;;;;;;;16.74;74.39;101222.81;4987362;28;20306;-73
2023/09/28 07:13:56;;;;;;;14.17;5.77;;;;;;;16.83;74.50;101218.06;4983366;28;20251;-72
2023/09/28 07:16:22;;;;;;;21.23;5.40;;;;;;;16.96;73.92;101230.13;4983257;28;20269;-72
2023/09/28 07:18:49;;;;;;;8.43;5.10;;;;;;;17.06;73.74;101218.09;4992136;28;20532;-73
2023/09/28 07:21:15;;;;;;;8.60;4.80;;;;;;;17.15;73.81;101229.31;4991997;28;20302;-72
2023/09/28 07:23:43;;;;;;;10.33;5.40;;;;;;;17.26;73.33;101228.41;4983833;28;20212;-73
2023/09/28 07:26:14;;;;;;;9.87;4.87;;;;;;;17.35;73.45;101223.63;4986777;28;20211;-72
2023/09/28 07:28:40;;;;;;;12.93;5.40;;;;;;;17.50;72.69;101227.31;4993006;28;20208;-73
2023/09/28 07:31:07;;;;;;;9.47;5.10;;;;;;;17.61;72.30;101233.63;4988087;28;20291;-73
2023/09/28 07:33:34;;;;;;;8.90;4.93;;;;;;;17.69;71.86;101241.38;4984117;28;20204;-73
2023/09/28 07:36:04;;;;;;;12.07;5.13;;;;;;;17.78;71.50;101239.25;4990411;28;20230;-73
2023/09/28 07:38:32;;;;;;;9.53;4.93;;;;;;;17.92;70.90;101246.72;4989260;28;20211;-73
2023/09/28 07:40:59;;;;;;;8.17;4.87;;;;;;;18.04;69.78;101247.28;4987385;28;20197;-73
2023/09/28 07:43:26;;;;;;;12.73;5.60;;;;;;;18.15;70.60;101242.09;4976745;28;20294;-74
2023/09/28 07:45:52;;;;;;;6.77;5.20;;;;;;;18.23;70.34;101236.50;4989612;28;20207;-73
2023/09/28 07:48:18;;;;;;;8.43;4.67;;;;;;;18.31;71.04;101238.16;4989075;28;20205;-73
2023/09/28 07:50:47;;;;;;;14.17;5.00;;;;;;;18.44;70.42;101242.19;4989765;28;20621;-72
2023/09/28 07:53:13;;;;;;;9.37;5.43;;;;;;;18.54;69.94;101254.94;4978531;28;20201;-74
2023/09/28 07:55:40;;;;;;;15.97;5.40;;;;;;;18.67;69.73;101250.13;4985504;28;20201;-74
2023/09/28 07:58:08;;;;;;;8.93;5.37;;;;;;;18.79;68.46;101247.97;4988883;28;20212;-73
2023/09/28 08:00:35;;;;;;;9.10;4.87;;;;;;;18.87;69.15;101246.94;4992511;28;20774;-73
2023/09/28 08:03:01;;;;;;;11.20;4.97;;;;;;;18.96;69.03;101255.47;4975352;28;20208;-73
2023/09/28 08:05:28;;;;;;;11.77;5.27;;;;;;;19.06;68.73;101254.03;4989622;28;20287;-75
2023/09/28 08:07:54;;;;;;;10.13;5.33;;;;;;;19.18;68.50;101262.59;4990554;28;20209;-74
2023/09/28 08:10:22;;;;;;;12.20;5.40;;;;;;;19.28;67.03;101256.59;4985059;28;20225;-73
2023/09/28 08:12:49;;;;;;;15.63;5.33;;;;;;;19.41;67.36;101259.78;4982408;28;20522;-74
2023/09/28 08:15:16;;;;;;;9.20;5.07;;;;;;;19.49;67.02;101264.06;4983804;28;20217;-73
2023/09/28 08:17:45;;;;;;;9.40;4.80;;;;;;;19.59;67.20;101271.44;4973359;28;20848;-73
2023/09/28 08:20:12;;;;;;;7.63;4.50;;;;;;;19.69;65.88;101271.56;4988260;28;20345;-73
2023/09/28 08:22:39;;;;;;;8.30;4.60;;;;;;;19.78;67.43;101268.56;4988981;28;20215;-75
2023/09/28 08:25:08;;;;;;;6.53;4.93;;;;;;;19.88;66.34;101270.56;4984297;28;20776;-73
2023/09/28 08:27:35;;;;;;;8.17;5.10;;;;;;;20.04;65.59;101268.38;4980708;28;20282;-73
2023/09/28 08:30:01;;;;;;;7.77;5.30;;;;;;;20.11;66.37;101281.84;4980184;28;20260;-74
2023/09/28 08:32:29;;;;;;;7.10;5.10;;;;;;;20.23;64.78;101271.59;4985755;28;20212;-73
2023/09/28 08:34:55;;;;;;;6.10;4.90;;;;;;;20.29;65.20;101270.09;4967821;28;21317;-73
2023/09/28 08:37:23;;;;;;;7.00;4.80;;;;;;;20.38;65.03;101273.25;4986408;28;20639;-74
2023/09/28 08:39:51;;;;;;;13.17;5.70;;;;;;;20.47;64.69;101270.22;4982199;28;20228;-73
2023/09/28 08:42:25;;;;;;;9.20;5.77;;;;;;;20.55;64.54;101269.13;4987957;28;20204;-73
2023/09/28 08:45:00;;;;;;;11.97;5.03;;;;;;;20.64;64.85;101269.56;4970324;28;20937;-75
2023/09/28 08:47:32;;;;;;;14.40;5.43;;;;;;;20.71;65.46;101264.22;4978346;28;20232;-74
2023/09/28 08:49:58;;;;;;;10.03;5.20;;;;;;;20.84;63.61;101262.72;4985088;28;20319;-74
2023/09/28 08:52:28;;;;;;;6.93;5.10;;;;;;;20.92;63.31;101258.97;4986409;28;20386;-74
2023/09/28 08:54:55;;;;;;;9.80;5.57;;;;;;;21.00;63.20;101258.59;4983959;28;20263;-73
2023/09/28 08:57:22;;;;;;;7.80;5.00;;;;;;;21.07;64.33;101261.34;4985923;28;20390;-74
2023/09/28 08:59:49;;;;;;;7.37;5.20;;;;;;;21.15;64.64;101260.19;4977148;28;20229;-74
2023/09/28 09:02:18;;;;;;;6.00;4.93;;;;;;;21.24;62.59;101255.22;4984970;28;20219;-74
2023/09/28 09:04:45;;;;;;;7.23;5.40;;;;;;;21.33;62.92;101263.69;4976277;28;20209;-76
2023/09/28 09:07:12;;;;;;;9.27;5.57;;;;;;;21.40;62.67;101262.94;4984620;28;20578;-73
2023/09/28 09:09:40;;;;;;;7.57;5.07;;;;;;;21.48;62.00;101261.81;4977239;28;20939;-75
2023/09/28 09:12:10;;;;;;;8.87;4.70;;;;;;;21.55;62.03;101259.13;4966148;28;20707;-75
2023/09/28 09:14:37;;;;;;;9.80;4.60;;;;;;;21.61;61.78;101258.34;4985099;28;20235;-74
2023/09/28 09:17:04;;;;;;;11.50;5.10;;;;;;;21.70;61.95;101258.78;4984615;28;21178;-73
2023/09/28 09:19:32;;;;;;;8.30;5.20;;;;;;;21.79;60.48;101256.47;4977261;28;20263;-74
2023/09/28 09:22:00;;;;;;;8.67;5.57;;;;;;;21.85;61.47;101246.88;4986584;28;20223;-73
2023/09/28 09:24:30;;;;;;;6.10;5.20;;;;;;;21.93;60.97;101243.03;4985562;28;20550;-73
2023/09/28 09:26:56;;;;;;;9.83;5.37;;;;;;;22.00;60.87;101250.31;4967888;28;20911;-73
2023/09/28 09:29:23;;;;;;;9.57;5.40;;;;;;;22.09;60.29;101250.69;4982666;28;20264;-73
2023/09/28 09:31:51;;;;;;;10.33;5.30;;;;;;;22.17;59.23;101250.31;4965357;28;20252;-72
2023/09/28 09:34:19;;;;;;;7.67;5.50;;;;;;;22.23;60.58;101253.34;4978899;28;20209;-72
2023/09/28 09:36:51;;;;;;;9.97;5.50;;;;;;;22.29;60.76;101252.56;4963508;28;20707;-73
2023/09/28 09:39:24;;;;;;;12.00;5.10;;;;;;;22.38;60.44;101250.25;4969095;28;20233;-71
2023/09/28 09:41:51;;;;;;;8.27;5.03;;;;;;;22.45;58.07;101252.94;4974017;28;20341;-72
2023/09/28 09:44:18;;;;;;;9.13;5.10;;;;;;;22.53;57.97;101251.78;4976276;28;20237;-72
2023/09/28 09:46:48;;;;;;;5.97;5.37;;;;;;;22.57;58.25;101257.16;4982875;28;20204;-71
2023/09/28 09:49:18;;;;;;;8.27;4.93;;;;;;;22.63;58.34;101244.81;4963964;28;20782;-73
2023/09/28 09:51:46;;;;;;;12.33;5.40;;;;;;;22.69;58.26;101251.31;4963016;28;20320;-74
2023/09/28 09:54:16;;;;;;;13.43;5.20;;;;;;;22.73;58.86;101257.47;4963805;28;20608;-74
2023/09/28 09:56:46;;;;;;;10.33;5.13;;;;;;;22.82;57.08;101255.88;4982062;28;20593;-75
2023/09/28 09:59:25;;;;;;;7.43;4.88;;;;;;;22.88;57.89;101245.47;4961560;28;20355;-74
2023/09/28 10:01:53;;;;;;;7.43;5.32;;;;;;;22.97;57.33;101248.53;4959998;28;20220;-73
2023/09/28 10:04:22;;;;;;;12.98;5.30;;;;;;;23.03;56.39;101244.25;4977788;28;21381;-75
2023/09/28 10:06:52;;;;;;;8.88;5.30;;;;;;;23.04;57.77;101243.88;4965884;28;20223;-75
2023/09/28 10:09:20;;;;;;;8.57;5.00;;;;;;;23.10;57.06;101242.28;4982828;28;20800;-75
2023/09/28 10:11:49;;;;;;;5.30;4.80;;;;;;;23.19;57.13;101241.88;4977603;28;20282;-75
2023/09/28 10:14:20;;;;;;;8.23;5.28;;;;;;;23.26;57.21;101239.13;4959241;28;20228;-74
2023/09/28 10:16:50;;;;;;;9.07;5.05;;;;;;;23.32;56.68;101253.72;4979242;28;20617;-74
2023/09/28 10:19:20;;;;;;;9.20;5.05;;;;;;;23.39;56.93;101245.59;4961049;28;21192;-73
2023/09/28 10:21:47;;;;;;;8.75;5.75;;;;;;;23.46;56.75;101250.19;4978828;28;20717;-73
2023/09/28 10:24:17;;;;;;;5.78;4.80;;;;;;;23.53;55.99;101248.19;4962466;28;20302;-74
2023/09/28 10:26:47;;;;;;;7.65;5.80;;;;;;;23.62;56.16;101245.06;4980319;28;20317;-75
2023/09/28 10:29:20;;;;;;;8.27;5.13;;;;;;;23.69;55.00;101245.78;4964531;28;20322;-74
2023/09/28 10:31:47;;;;;;;6.20;4.40;;;;;;;23.74;54.90;101248.81;4971115;28;20221;-74
2023/09/28 10:34:19;;;;;;;6.53;4.75;;;;;;;23.78;55.03;101241.44;4979037;28;20675;-75
2023/09/28 10:37:21;;;;;;;6.90;5.03;;;;;;;23.86;54.55;101247.56;4979642;28;20196;-76
2023/09/28 10:39:57;;;;;;;6.07;4.88;;;;;;;23.93;54.35;101239.41;4960609;28;20591;-75
2023/09/28 10:42:24;;;;;;;7.07;5.13;;;;;;;23.97;55.95;101240.16;4961369;28;20208;-74
2023/09/28 10:44:51;;;;;;;10.82;5.93;;;;;;;24.03;54.66;101237.81;4979740;28;20211;-75
2023/09/28 10:47:20;;;;;;;7.43;4.65;;;;;;;24.05;54.80;101246.25;4962453;28;20830;-73
2023/09/28 10:49:48;;;;;;;6.93;4.90;;;;;;;24.13;53.86;101236.91;4981158;28;20224;-75
2023/09/28 10:52:16;;;;;;;6.20;4.32;;;;;;;24.15;53.57;101232.63;4980424;28;20815;-74
2023/09/28 10:54:44;;;;;;;7.90;4.97;;;;;;;24.19;53.45;101232.63;4979958;28;20223;-74
2023/09/28 10:57:11;;;;;;;7.90;4.80;;;;;;;24.22;53.24;101232.59;4967893;28;21936;-73
2023/09/28 10:59:40;;;;;;;5.75;4.60;;;;;;;24.25;53.58;101237.16;4975662;28;20277;-73
2023/09/28 11:02:07;;;;;;;8.05;4.43;;;;;;;24.30;53.04;101235.97;4962198;28;21769;-72
2023/09/28 11:04:38;;;;;;;5.93;4.53;;;;;;;24.37;51.13;101231.28;4958173;28;20213;-72
2023/09/28 11:07:06;;;;;;;5.22;4.50;;;;;;;24.42;53.82;101235.44;4961261;28;20209;-73
2023/09/28 11:09:32;;;;;;;5.72;4.60;;;;;;;24.46;53.98;101234.22;4962036;28;20235;-73
2023/09/28 11:12:08;;;;;;;7.40;4.30;;;;;;;24.54;51.27;101238.41;4975861;28;20595;-73
2023/09/28 11:14:36;;;;;;;7.70;4.50;;;;;;;24.58;51.68;101236.44;4970300;28;20522;-74
2023/09/28 11:17:03;;;;;;;7.70;4.80;;;;;;;24.66;51.15;101232.47;4974803;28;20808;-74
2023/09/28 11:19:30;;;;;;;7.72;4.40;;;;;;;24.74;51.23;101239.34;4970133;28;20952;-74
2023/09/28 11:21:57;;;;;;;6.85;4.57;;;;;;;24.78;51.35;101229.25;4976466;28;20219;-73